Andesborg — PCLC — position and weather

sailwx.info

Track history (hours):
 
Tides and Currents Weather Stations Pressure Air Temp Water Temp Dewpoint Dewpoint Depression Visibility Wind Speed Wind Dir Waves Ship Positions

Andesborg

Last reported at 2015-May-15 01:33 UTC. Time now 2015-May-24 21:26 UTC.
Position N 46°26' W 072°16'.
Warning: this ship's position is 9 days out of date.

Length 142 m; draft 8.1 m.

Type: Ship. MMSI: 246797000.

Date/timePositionNaut miles runAvg speedWind from/ knotsBaromVisibWave heightAir tempDewpointWater temp
2015-May-15 01:33N 46°26' W 072°16'1413.8
2015-May-15 00:33N 46°19' W 072°33'1312.7
2015-May-14 23:33N 46°13' W 072°49'1413.6
2015-May-14 22:32N 46°04' W 073°04'41 5.7
2015-May-14 15:27N 45°27' W 073°30'4 3.9
2015-May-14 14:27N 45°24' W 073°34'2 2.2
2015-May-14 13:31N 45°24' W 073°37'7 6.9
2015-May-14 12:33N 45°24' W 073°47'8 8.1
2015-May-14 11:33N 45°19' W 073°55'1 0.8
2015-May-14 10:33N 45°18' W 073°56'2 2.1
2015-May-14 09:26N 45°16' W 073°57'1010.7
2015-May-14 08:32N 45°14' W 074°11'12110.1
2015-May-13 20:34N 44°02' W 076°27'1 1.1
2015-May-13 19:34N 44°01' W 076°28'5 5.0
2015-May-13 18:34N 43°57' W 076°32'  
2015-May-08 00:15N 46°04' W 084°01'9 8.6
2015-May-07 23:09N 45°56' W 083°54'712.0
2015-May-07 22:33N 45°53' W 084°03'1211.8
2015-May-07 21:33N 45°51' W 084°20'1211.9
2015-May-07 20:33N 45°51' W 084°37'1312.6
2015-May-07 19:33N 45°49' W 084°55'1010.3
2015-May-07 18:33N 45°46' W 085°09'1312.5
2015-May-07 17:33N 45°36' W 085°19'1313.0
2015-May-07 16:33N 45°26' W 085°30'1313.1
2015-May-07 15:33N 45°15' W 085°41'1313.1
2015-May-07 14:33N 45°05' W 085°52'1312.8
2015-May-07 13:33N 44°57' W 086°07'17013.1
2015-May-07 00:32N 42°15' W 087°18'1313.0
2015-May-06 23:33N 42°02' W 087°22'1313.2
2015-May-06 22:33N 41°50' W 087°26'7 1.1
2015-May-06 16:17N 41°44' W 087°32'0 0.0
2015-May-06 15:32N 41°44' W 087°32'0 0.0
2015-May-06 14:32N 41°44' W 087°32'0 0.0
2015-May-06 13:32N 41°44' W 087°32'0 0.0
2015-May-06 12:32N 41°44' W 087°32'0 0.0
2015-May-06 11:32N 41°44' W 087°32'0 0.0
2015-May-06 10:32N 41°44' W 087°32'0 0.0
2015-May-06 09:32N 41°44' W 087°32'0 0.0
2015-May-06 08:32N 41°44' W 087°32'0 0.0
2015-May-06 07:32N 41°44' W 087°32'0 0.0
2015-May-06 06:32N 41°44' W 087°32'0 0.0
2015-May-06 05:32N 41°44' W 087°32'0 0.0
2015-May-06 04:32N 41°44' W 087°32'0 0.0
2015-May-06 03:32N 41°44' W 087°32'0 0.0
2015-May-06 02:32N 41°44' W 087°32'0 0.0
2015-May-06 01:32N 41°44' W 087°32'0 0.0
2015-May-06 00:32N 41°44' W 087°32'0 0.0
2015-May-05 23:32N 41°44' W 087°32'0 0.0
2015-May-05 22:32N 41°44' W 087°32'0 0.0
2015-May-05 21:32N 41°44' W 087°32'0 0.0
2015-May-05 20:32N 41°44' W 087°32'0 0.0
2015-May-05 19:32N 41°44' W 087°32'0 0.0
2015-May-05 18:32N 41°44' W 087°32'0 0.0
2015-May-05 17:32N 41°44' W 087°32'0 0.0
2015-May-05 16:32N 41°44' W 087°32'0 0.0
2015-May-05 15:32N 41°44' W 087°32'0 0.0
2015-May-05 14:32N 41°44' W 087°32'0 0.0
2015-May-05 13:32N 41°44' W 087°32'0 0.0
2015-May-05 12:32N 41°44' W 087°32'0 0.0
2015-May-05 11:32N 41°44' W 087°32'0 0.0
2015-May-05 10:32N 41°44' W 087°32'0 0.0
2015-May-05 09:32N 41°44' W 087°32'0 0.0
2015-May-05 08:32N 41°44' W 087°32'0 0.0
2015-May-05 07:29N 41°44' W 087°32'0 0.0
2015-May-05 06:32N 41°44' W 087°32'0 0.0
2015-May-05 05:29N 41°44' W 087°32'0 0.0
2015-May-05 04:29N 41°44' W 087°32'0 0.0
2015-May-05 03:32N 41°44' W 087°32'0 0.0
2015-May-05 02:32N 41°44' W 087°32'  
Track history (hours):
 
Tides and Currents Weather Stations Pressure Air Temp Water Temp Dewpoint Dewpoint Depression Visibility Wind Speed Wind Dir Waves Ship Positions

Andesborg

Last reported at 2015-May-15 01:33 UTC. Time now 2015-May-24 21:26 UTC.
Position N 46°26' W 072°16'.
Warning: this ship's position is 9 days out of date.

Length 142 m; draft 8.1 m.

Type: Ship. MMSI: 246797000.

Date/timePositionNaut miles runAvg speedWind from/ knotsBaromVisibWave heightAir tempDewpointWater temp
2015-May-15 01:33N 46°26' W 072°16'1413.8
2015-May-15 00:33N 46°19' W 072°33'1312.7
2015-May-14 23:33N 46°13' W 072°49'1413.6
2015-May-14 22:32N 46°04' W 073°04'41 5.7
2015-May-14 15:27N 45°27' W 073°30'4 3.9
2015-May-14 14:27N 45°24' W 073°34'2 2.2
2015-May-14 13:31N 45°24' W 073°37'7 6.9
2015-May-14 12:33N 45°24' W 073°47'8 8.1
2015-May-14 11:33N 45°19' W 073°55'1 0.8
2015-May-14 10:33N 45°18' W 073°56'2 2.1
2015-May-14 09:26N 45°16' W 073°57'1010.7
2015-May-14 08:32N 45°14' W 074°11'12110.1
2015-May-13 20:34N 44°02' W 076°27'1 1.1
2015-May-13 19:34N 44°01' W 076°28'5 5.0
2015-May-13 18:34N 43°57' W 076°32'  
2015-May-08 00:15N 46°04' W 084°01'9 8.6
2015-May-07 23:09N 45°56' W 083°54'712.0
2015-May-07 22:33N 45°53' W 084°03'1211.8
2015-May-07 21:33N 45°51' W 084°20'1211.9
2015-May-07 20:33N 45°51' W 084°37'1312.6
2015-May-07 19:33N 45°49' W 084°55'1010.3
2015-May-07 18:33N 45°46' W 085°09'1312.5
2015-May-07 17:33N 45°36' W 085°19'1313.0
2015-May-07 16:33N 45°26' W 085°30'1313.1
2015-May-07 15:33N 45°15' W 085°41'1313.1
2015-May-07 14:33N 45°05' W 085°52'1312.8
2015-May-07 13:33N 44°57' W 086°07'17013.1
2015-May-07 00:32N 42°15' W 087°18'1313.0
2015-May-06 23:33N 42°02' W 087°22'1313.2
2015-May-06 22:33N 41°50' W 087°26'7 1.1
2015-May-06 16:17N 41°44' W 087°32'0 0.0
2015-May-06 15:32N 41°44' W 087°32'0 0.0
2015-May-06 14:32N 41°44' W 087°32'0 0.0
2015-May-06 13:32N 41°44' W 087°32'0 0.0
2015-May-06 12:32N 41°44' W 087°32'0 0.0
2015-May-06 11:32N 41°44' W 087°32'0 0.0
2015-May-06 10:32N 41°44' W 087°32'0 0.0
2015-May-06 09:32N 41°44' W 087°32'0 0.0
2015-May-06 08:32N 41°44' W 087°32'0 0.0
2015-May-06 07:32N 41°44' W 087°32'0 0.0
2015-May-06 06:32N 41°44' W 087°32'0 0.0
2015-May-06 05:32N 41°44' W 087°32'0 0.0
2015-May-06 04:32N 41°44' W 087°32'0 0.0
2015-May-06 03:32N 41°44' W 087°32'0 0.0
2015-May-06 02:32N 41°44' W 087°32'0 0.0
2015-May-06 01:32N 41°44' W 087°32'0 0.0
2015-May-06 00:32N 41°44' W 087°32'0 0.0
2015-May-05 23:32N 41°44' W 087°32'0 0.0
2015-May-05 22:32N 41°44' W 087°32'0 0.0
2015-May-05 21:32N 41°44' W 087°32'0 0.0
2015-May-05 20:32N 41°44' W 087°32'0 0.0
2015-May-05 19:32N 41°44' W 087°32'0 0.0
2015-May-05 18:32N 41°44' W 087°32'0 0.0
2015-May-05 17:32N 41°44' W 087°32'0 0.0
2015-May-05 16:32N 41°44' W 087°32'0 0.0
2015-May-05 15:32N 41°44' W 087°32'0 0.0
2015-May-05 14:32N 41°44' W 087°32'0 0.0
2015-May-05 13:32N 41°44' W 087°32'0 0.0
2015-May-05 12:32N 41°44' W 087°32'0 0.0
2015-May-05 11:32N 41°44' W 087°32'0 0.0
2015-May-05 10:32N 41°44' W 087°32'0 0.0
2015-May-05 09:32N 41°44' W 087°32'0 0.0
2015-May-05 08:32N 41°44' W 087°32'0 0.0
2015-May-05 07:29N 41°44' W 087°32'0 0.0
2015-May-05 06:32N 41°44' W 087°32'0 0.0
2015-May-05 05:29N 41°44' W 087°32'0 0.0
2015-May-05 04:29N 41°44' W 087°32'0 0.0
2015-May-05 03:32N 41°44' W 087°32'0 0.0
2015-May-05 02:32N 41°44' W 087°32'  

Dump ship's entire track history